createdAt,value
2019-05-30T00:00:16.978Z,15.73
2019-05-30T00:02:42.690Z,15.71
2019-05-30T00:05:13.677Z,15.71
2019-05-30T00:07:44.363Z,15.71
2019-05-30T00:10:15.227Z,15.71
2019-05-30T00:12:45.913Z,15.71
2019-05-30T00:15:17.031Z,15.69
2019-05-30T00:17:47.704Z,15.71
2019-05-30T00:20:18.323Z,15.71
2019-05-30T00:22:49.049Z,15.71
2019-05-30T00:25:19.903Z,15.72
2019-05-30T00:27:50.745Z,15.73
2019-05-30T00:30:24.750Z,15.73
2019-05-30T00:32:53.759Z,15.73
2019-05-30T00:35:24.492Z,15.72
2019-05-30T00:37:55.645Z,15.74
2019-05-30T00:40:26.178Z,15.73
2019-05-30T00:42:57.810Z,15.73
2019-05-30T00:45:28.403Z,15.73
2019-05-30T00:48:00.052Z,15.74
2019-05-30T00:50:30.878Z,15.74
2019-05-30T00:53:02.849Z,15.74
2019-05-30T00:55:33.515Z,15.74
2019-05-30T00:58:04.830Z,15.75
2019-05-30T01:00:43.549Z,15.74
2019-05-30T01:03:09.189Z,15.77
2019-05-30T01:05:39.983Z,15.76
2019-05-30T01:08:10.654Z,15.78
2019-05-30T01:10:41.594Z,15.78
2019-05-30T01:13:12.214Z,15.80
2019-05-30T01:15:43.083Z,15.80
2019-05-30T01:18:13.679Z,15.82
2019-05-30T01:20:45.140Z,15.82
2019-05-30T01:23:15.735Z,15.83
2019-05-30T01:25:46.302Z,15.80
2019-05-30T01:28:17.066Z,15.81
2019-05-30T01:30:59.524Z,15.81
2019-05-30T01:33:20.017Z,15.81
2019-05-30T01:35:50.630Z,15.80
2019-05-30T01:38:21.288Z,15.79
2019-05-30T01:40:51.860Z,15.78
2019-05-30T01:43:22.394Z,15.78
2019-05-30T01:45:52.971Z,15.79
2019-05-30T01:48:23.856Z,15.79
2019-05-30T01:50:54.529Z,15.79
2019-05-30T01:53:25.162Z,15.78
2019-05-30T01:55:55.899Z,15.80
2019-05-30T01:58:26.652Z,15.79
2019-05-30T02:00:58.657Z,15.79
2019-05-30T02:03:29.345Z,15.81
2019-05-30T02:06:01.043Z,15.81
2019-05-30T02:08:31.718Z,15.79
2019-05-30T02:11:03.355Z,15.78
2019-05-30T02:13:33.984Z,15.77
2019-05-30T02:16:05.725Z,15.75
2019-05-30T02:18:36.453Z,15.74
2019-05-30T02:21:07.906Z,15.74
2019-05-30T02:23:38.507Z,15.73
2019-05-30T02:26:10.396Z,15.70
2019-05-30T02:28:41.212Z,15.68
2019-05-30T02:31:12.943Z,15.64
2019-05-30T02:33:43.583Z,15.60
2019-05-30T02:36:14.298Z,15.55
2019-05-30T02:38:45.025Z,15.55
2019-05-30T02:41:17.173Z,15.55
2019-05-30T02:43:47.804Z,15.52
2019-05-30T02:46:18.270Z,15.47
2019-05-30T02:48:58.719Z,15.46
2019-05-30T02:51:21.075Z,15.46
2019-05-30T02:53:51.539Z,15.45
2019-05-30T02:56:22.154Z,15.43
2019-05-30T02:58:52.727Z,15.42
2019-05-30T03:01:23.378Z,15.40
2019-05-30T03:03:53.990Z,15.38
2019-05-30T03:06:24.640Z,15.38
2019-05-30T03:08:55.281Z,15.39
2019-05-30T03:11:27.324Z,15.40
2019-05-30T03:13:58.318Z,15.41
2019-05-30T03:16:28.793Z,15.42
2019-05-30T03:18:59.726Z,15.42
2019-05-30T03:21:30.434Z,15.38
2019-05-30T03:24:02.795Z,15.38
2019-05-30T03:26:33.592Z,15.37
2019-05-30T03:29:05.568Z,15.36
2019-05-30T03:31:37.231Z,15.35
2019-05-30T03:34:16.437Z,15.34
2019-05-30T03:36:40.256Z,15.32
2019-05-30T03:39:12.516Z,15.34
2019-05-30T03:41:42.975Z,15.36
2019-05-30T03:44:15.366Z,15.38
2019-05-30T03:46:50.020Z,15.42
2019-05-30T03:49:24.124Z,15.41
2019-05-30T03:51:57.918Z,15.41
2019-05-30T03:54:28.838Z,15.43
2019-05-30T03:57:18.235Z,15.42
2019-05-30T03:59:54.327Z,15.45
2019-05-30T04:02:58.121Z,15.44
2019-05-30T04:05:33.935Z,15.45
2019-05-30T04:08:09.447Z,15.44
2019-05-30T04:10:42.882Z,15.41
2019-05-30T04:13:26.555Z,15.39
2019-05-30T04:15:57.286Z,15.36
2019-05-30T04:18:27.862Z,15.35
2019-05-30T04:20:58.292Z,15.34
2019-05-30T04:23:28.835Z,15.33
2019-05-30T04:26:00.936Z,15.34
2019-05-30T04:28:31.810Z,15.37
2019-05-30T04:31:03.355Z,15.40
2019-05-30T04:33:34.077Z,15.41
2019-05-30T04:36:04.567Z,15.43
2019-05-30T04:38:35.157Z,15.47
2019-05-30T04:41:05.729Z,15.50
2019-05-30T04:43:36.249Z,15.53
2019-05-30T04:46:06.990Z,15.54
2019-05-30T04:48:37.672Z,15.57
2019-05-30T04:51:10.027Z,15.60
2019-05-30T04:53:40.763Z,15.60
2019-05-30T04:56:12.617Z,15.63
2019-05-30T04:58:43.321Z,15.64
2019-05-30T05:01:15.501Z,15.65
2019-05-30T05:03:46.882Z,15.68
2019-05-30T05:06:17.952Z,15.68
2019-05-30T05:08:48.968Z,15.73
2019-05-30T05:11:23.032Z,15.77
2019-05-30T05:13:51.746Z,15.85
2019-05-30T05:16:33.987Z,15.94
2019-05-30T05:18:54.419Z,16.02
2019-05-30T05:21:27.470Z,16.05
2019-05-30T05:23:58.368Z,16.09
2019-05-30T05:26:28.974Z,16.13
2019-05-30T05:28:59.529Z,16.15
2019-05-30T05:31:30.046Z,16.16
2019-05-30T05:34:01.612Z,16.21
2019-05-30T05:36:32.136Z,16.28
2019-05-30T05:39:02.699Z,16.36
2019-05-30T05:41:33.448Z,16.52
2019-05-30T05:44:04.022Z,16.70
2019-05-30T05:46:34.651Z,16.87
2019-05-30T05:49:05.319Z,17.06
2019-05-30T05:51:35.891Z,17.15
2019-05-30T05:54:06.478Z,17.19
2019-05-30T05:56:37.035Z,17.57
2019-05-30T05:59:07.522Z,17.85
2019-05-30T06:01:38.022Z,17.93
2019-05-30T06:04:13.096Z,18.36
2019-05-30T06:06:41.026Z,18.92
2019-05-30T06:09:11.918Z,19.47
2019-05-30T06:11:42.441Z,20.15
2019-05-30T06:14:13.104Z,20.38
2019-05-30T06:16:43.897Z,20.58
2019-05-30T06:19:17.155Z,21.06
2019-05-30T06:21:53.873Z,21.31
2019-05-30T06:24:21.518Z,21.65
2019-05-30T06:26:52.025Z,21.65
2019-05-30T06:29:22.560Z,21.93
2019-05-30T06:31:54.088Z,21.99
2019-05-30T06:34:32.727Z,21.71
2019-05-30T06:36:57.166Z,21.73
2019-05-30T06:39:27.839Z,21.76
2019-05-30T06:41:58.408Z,21.74
2019-05-30T06:44:30.237Z,22.25
2019-05-30T06:47:00.862Z,22.68
2019-05-30T06:49:31.384Z,22.65
2019-05-30T06:52:02.170Z,22.75
2019-05-30T06:54:33.713Z,23.31
2019-05-30T06:57:05.378Z,23.67
2019-05-30T06:59:35.996Z,24.29
2019-05-30T07:02:06.510Z,24.35
2019-05-30T07:04:50.975Z,24.57
2019-05-30T07:07:09.545Z,24.73
2019-05-30T07:09:40.303Z,24.58
2019-05-30T07:12:11.991Z,24.67
2019-05-30T07:14:43.925Z,24.67
2019-05-30T07:17:15.521Z,24.75
2019-05-30T07:19:46.059Z,24.76
2019-05-30T07:22:16.733Z,24.79
2019-05-30T07:24:47.235Z,24.53
2019-05-30T07:27:18.056Z,24.63
2019-05-30T07:29:48.874Z,25.04
2019-05-30T07:32:19.373Z,25.25
2019-05-30T07:35:03.419Z,25.44
2019-05-30T07:37:24.363Z,25.76
2019-05-30T07:39:55.033Z,25.55
2019-05-30T07:42:26.549Z,25.45
2019-05-30T07:44:57.272Z,25.59
2019-05-30T07:47:28.115Z,25.88
2019-05-30T07:49:58.686Z,25.77
2019-05-30T07:52:30.288Z,25.68
2019-05-30T07:55:02.156Z,25.69
2019-05-30T07:57:32.959Z,25.81
2019-05-30T08:00:03.900Z,26.10
2019-05-30T08:02:35.761Z,26.22
2019-05-30T09:24:09.849Z,23.04
2019-05-30T09:26:44.178Z,23.24
2019-05-30T09:29:16.545Z,23.60
2019-05-30T09:31:47.057Z,23.58
2019-05-30T09:34:18.315Z,23.47
2019-05-30T09:36:49.190Z,23.29
2019-05-30T09:39:20.384Z,23.08
2019-05-30T09:41:50.901Z,23.23
2019-05-30T09:44:21.414Z,23.52
2019-05-30T09:46:52.216Z,23.41
2019-05-30T09:49:24.342Z,23.50
2019-05-30T09:51:54.953Z,23.83
2019-05-30T09:54:25.681Z,24.07
2019-05-30T09:56:57.313Z,24.26
2019-05-30T09:59:28.358Z,24.62
2019-05-30T10:01:58.930Z,24.78
2019-05-30T10:04:29.564Z,24.57
2019-05-30T10:07:00.160Z,24.32
2019-05-30T10:09:30.705Z,24.47
2019-05-30T10:13:52.855Z,24.37
2019-05-30T10:16:23.537Z,24.44
2019-05-30T10:18:57.012Z,24.42
2019-05-30T10:21:28.116Z,24.51
2019-05-30T10:23:59.359Z,24.62
2019-05-30T10:28:14.097Z,24.51
2019-05-30T10:32:13.115Z,24.07
2019-05-30T10:35:01.537Z,23.84
2019-05-30T10:37:32.100Z,23.92
2019-05-30T10:40:03.636Z,23.90
2019-05-30T10:42:35.163Z,23.96
2019-05-30T10:45:06.904Z,23.99
2019-05-30T10:47:37.611Z,23.99
2019-05-30T10:50:10.641Z,23.87
2019-05-30T10:52:41.719Z,23.94
2019-05-30T10:55:14.504Z,24.30
2019-05-30T10:57:47.012Z,24.37
2019-05-30T11:00:19.532Z,24.46
2019-05-30T11:02:51.237Z,24.68
2019-05-30T11:05:23.182Z,24.86
2019-05-30T11:08:06.241Z,24.86
2019-05-30T11:10:38.943Z,24.93
2019-05-30T11:13:12.240Z,24.78
2019-05-30T11:15:44.478Z,24.74
2019-05-30T11:18:16.201Z,24.79
2019-05-30T11:20:47.826Z,24.55
2019-05-30T11:23:18.979Z,24.38
2019-05-30T11:25:50.477Z,24.47
2019-05-30T11:28:22.757Z,24.60
2019-05-30T11:30:54.775Z,24.78
2019-05-30T11:33:26.796Z,24.75
2019-05-30T11:35:57.510Z,24.68
2019-05-30T11:38:28.117Z,24.86
2019-05-30T11:41:01.046Z,25.25
2019-05-30T11:43:34.058Z,25.33
2019-05-30T11:46:04.785Z,25.31
2019-05-30T11:48:35.442Z,25.49
2019-05-30T11:51:06.692Z,25.57
2019-05-30T11:53:37.191Z,25.50
2019-05-30T11:56:08.912Z,25.48
2019-05-30T11:58:39.490Z,25.51
2019-05-30T12:01:10.106Z,25.42
2019-05-30T12:03:41.819Z,25.28
2019-05-30T12:06:12.337Z,25.21
2019-05-30T12:08:42.912Z,25.05
2019-05-30T12:11:13.370Z,24.90
2019-05-30T12:13:45.409Z,24.55
2019-05-30T12:16:16.231Z,24.42
2019-05-30T12:18:47.044Z,24.33
2019-05-30T12:21:18.950Z,24.06
2019-05-30T12:23:49.731Z,23.79
2019-05-30T12:26:20.403Z,23.60
2019-05-30T12:28:54.114Z,23.69
2019-05-30T12:31:24.902Z,23.67
2019-05-30T12:33:56.244Z,23.71
2019-05-30T12:36:28.049Z,23.73
2019-05-30T12:38:58.851Z,23.81
2019-05-30T12:41:29.842Z,23.83
2019-05-30T12:44:01.326Z,23.82
2019-05-30T12:46:32.540Z,23.77
2019-05-30T12:49:03.684Z,23.85
2019-05-30T12:51:35.010Z,23.92
2019-05-30T12:54:08.639Z,24.28
2019-05-30T12:56:45.257Z,24.81
2019-05-30T12:59:14.853Z,25.31
2019-05-30T13:01:56.782Z,25.44
2019-05-30T13:04:34.112Z,25.45
2019-05-30T13:07:18.909Z,25.50
2019-05-30T13:09:51.740Z,25.49
2019-05-30T13:12:25.638Z,25.55
2019-05-30T13:15:04.035Z,25.37
2019-05-30T13:17:34.990Z,25.07
2019-05-30T13:20:08.741Z,24.93
2019-05-30T13:22:44.489Z,24.82
2019-05-30T13:25:19.226Z,24.73
2019-05-30T13:27:50.392Z,24.57
2019-05-30T13:30:21.358Z,24.48
2019-05-30T13:32:52.907Z,24.27
2019-05-30T13:35:23.851Z,24.08
2019-05-30T13:37:58.961Z,23.97
2019-05-30T13:40:30.586Z,23.91
2019-05-30T13:43:03.937Z,23.82
2019-05-30T13:45:39.710Z,23.65
2019-05-30T13:48:10.739Z,23.60
2019-05-30T13:50:43.005Z,23.45
2019-05-30T13:53:13.614Z,23.36
2019-05-30T13:55:44.294Z,23.32
2019-05-30T13:58:19.645Z,23.37
2019-05-30T14:00:51.187Z,23.48
2019-05-30T14:03:22.556Z,23.67
2019-05-30T14:05:56.287Z,23.82
2019-05-30T14:08:40.745Z,24.01
2019-05-30T14:11:02.495Z,24.16
2019-05-30T14:13:33.634Z,24.28
2019-05-30T14:16:04.851Z,24.21
2019-05-30T14:18:35.599Z,24.11
2019-05-30T14:21:09.929Z,23.99
2019-05-30T14:23:40.543Z,23.87
2019-05-30T14:26:11.618Z,23.83
2019-05-30T14:28:42.680Z,23.78
2019-05-30T14:31:13.614Z,23.81
2019-05-30T14:33:46.315Z,23.82
2019-05-30T14:36:16.963Z,23.88
2019-05-30T14:38:57.894Z,23.88
2019-05-30T14:41:20.437Z,23.88
2019-05-30T14:43:52.156Z,23.85
2019-05-30T14:46:25.258Z,23.85
2019-05-30T14:48:56.002Z,23.79
2019-05-30T14:51:26.901Z,23.71
2019-05-30T14:53:58.525Z,23.58
2019-05-30T14:56:30.144Z,23.52
2019-05-30T14:59:01.222Z,23.51
2019-05-30T15:01:31.888Z,23.61
2019-05-30T15:04:02.651Z,23.77
2019-05-30T15:06:33.319Z,23.87
2019-05-30T15:09:15.304Z,23.97
2019-05-30T15:11:37.384Z,23.95
2019-05-30T15:14:08.756Z,23.95
2019-05-30T15:16:39.412Z,23.97
2019-05-30T15:19:10.422Z,23.96
2019-05-30T15:21:41.087Z,23.99
2019-05-30T15:24:12.829Z,24.02
2019-05-30T15:26:44.786Z,24.10
2019-05-30T15:29:16.312Z,24.05
2019-05-30T15:31:49.197Z,23.94
2019-05-30T15:34:19.897Z,23.87
2019-05-30T15:36:50.654Z,23.79
2019-05-30T15:39:32.422Z,23.81
2019-05-30T15:41:53.698Z,23.83
2019-05-30T15:44:24.249Z,23.76
2019-05-30T15:46:55.777Z,23.69
2019-05-30T15:49:26.354Z,23.80
2019-05-30T15:51:57.253Z,23.77
2019-05-30T15:54:27.916Z,23.81
2019-05-30T15:56:58.464Z,23.84
2019-05-30T15:59:28.950Z,23.85
2019-05-30T16:02:01.404Z,23.93
2019-05-30T16:04:31.720Z,23.90
2019-05-30T16:07:02.241Z,23.91
2019-05-30T16:09:46.284Z,23.84
2019-05-30T16:12:05.375Z,23.63
2019-05-30T16:14:37.189Z,23.51
2019-05-30T16:17:08.003Z,23.39
2019-05-30T16:19:38.695Z,23.29
2019-05-30T16:22:10.531Z,23.25
2019-05-30T16:24:41.202Z,23.18
2019-05-30T16:27:11.918Z,23.06
2019-05-30T16:29:42.487Z,22.98
2019-05-30T16:32:13.776Z,22.99
2019-05-30T16:34:44.447Z,23.01
2019-05-30T16:37:16.064Z,22.98
2019-05-30T16:40:04.390Z,23.00
2019-05-30T16:42:22.297Z,23.01
2019-05-30T16:44:52.846Z,23.03
2019-05-30T16:47:23.775Z,22.97
2019-05-30T16:49:54.563Z,22.93
2019-05-30T16:52:25.792Z,22.85
2019-05-30T16:54:56.429Z,22.79
2019-05-30T16:57:27.372Z,22.73
2019-05-30T16:59:58.057Z,22.79
2019-05-30T17:02:28.664Z,22.85
2019-05-30T17:04:59.199Z,22.94
2019-05-30T17:07:29.844Z,23.06
2019-05-30T17:10:00.453Z,23.14
2019-05-30T17:12:31.041Z,23.19
2019-05-30T17:15:03.600Z,23.21
2019-05-30T17:17:34.202Z,23.15
2019-05-30T17:20:05.346Z,23.12
2019-05-30T17:22:35.933Z,23.11
2019-05-30T17:25:06.908Z,23.17
2019-05-30T17:27:37.525Z,23.14
2019-05-30T17:30:09.181Z,23.13
2019-05-30T17:32:39.744Z,23.02
2019-05-30T17:35:11.436Z,23.02
2019-05-30T17:37:42.026Z,22.91
2019-05-30T17:40:14.546Z,22.83
2019-05-30T17:42:45.300Z,22.64
2019-05-30T17:45:16.340Z,22.56
2019-05-30T17:47:46.979Z,22.54
2019-05-30T17:50:19.691Z,22.49
2019-05-30T17:52:50.392Z,22.53
2019-05-30T17:55:23.853Z,22.51
2019-05-30T17:57:54.479Z,22.42
2019-05-30T18:00:26.450Z,22.45
2019-05-30T18:02:58.049Z,22.46
2019-05-30T18:05:30.988Z,22.40
2019-05-30T18:08:02.675Z,22.32
2019-05-30T18:10:34.669Z,22.31
2019-05-30T18:13:05.576Z,22.32
2019-05-30T18:15:36.063Z,22.25
2019-05-30T18:18:07.386Z,22.23
2019-05-30T18:20:48.467Z,22.26
2019-05-30T18:23:12.571Z,22.27
2019-05-30T18:25:43.214Z,22.24
2019-05-30T18:28:13.772Z,22.20
2019-05-30T18:30:45.099Z,22.18
2019-05-30T18:33:16.419Z,22.03
2019-05-30T18:35:55.626Z,21.94
2019-05-30T18:38:28.402Z,21.89
2019-05-30T18:41:11.004Z,21.82
2019-05-30T18:43:36.860Z,21.78
2019-05-30T18:46:07.664Z,21.67
2019-05-30T18:48:38.596Z,21.55
2019-05-30T18:51:09.984Z,21.47
2019-05-30T18:53:40.844Z,21.39
2019-05-30T18:56:11.458Z,21.37
2019-05-30T18:58:42.141Z,21.27
2019-05-30T19:01:14.879Z,21.15
2019-05-30T19:03:46.686Z,21.06
2019-05-30T19:06:17.679Z,21.00
2019-05-30T19:08:48.395Z,20.95
2019-05-30T19:11:28.209Z,20.89
2019-05-30T19:13:54.653Z,20.82
2019-05-30T19:16:28.489Z,20.75
2019-05-30T19:19:00.524Z,20.67
2019-05-30T19:21:32.167Z,20.62
2019-05-30T19:24:04.122Z,20.59
2019-05-30T19:26:34.905Z,20.54
2019-05-30T19:29:05.795Z,20.49
2019-05-30T19:31:37.008Z,20.47
2019-05-30T19:34:09.256Z,20.37
2019-05-30T19:36:40.679Z,20.29
2019-05-30T19:39:11.250Z,20.23
2019-05-30T19:41:56.398Z,20.17
2019-05-30T19:44:14.016Z,20.08
2019-05-30T19:46:44.878Z,19.98
2019-05-30T19:49:15.488Z,19.88
2019-05-30T19:51:47.693Z,19.80
2019-05-30T19:54:18.341Z,19.73
2019-05-30T19:56:49.262Z,19.68
2019-05-30T19:59:19.808Z,19.66
2019-05-30T20:01:50.370Z,19.65
2019-05-30T20:04:20.958Z,19.64
2019-05-30T20:06:51.509Z,19.59
2019-05-30T20:09:22.239Z,19.54
2019-05-30T20:12:02.651Z,19.50
2019-05-30T20:14:25.147Z,19.46
2019-05-30T20:16:55.707Z,19.44
2019-05-30T20:19:26.389Z,19.39
2019-05-30T20:21:57.269Z,19.36
2019-05-30T20:24:28.774Z,19.31
2019-05-30T20:26:59.260Z,19.26
2019-05-30T20:29:29.970Z,19.24
2019-05-30T20:32:01.704Z,19.24
2019-05-30T20:34:32.593Z,19.21
2019-05-30T20:37:05.882Z,19.21
2019-05-30T20:39:36.633Z,19.18
2019-05-30T20:42:18.927Z,19.14
2019-05-30T20:44:39.462Z,19.05
2019-05-30T20:47:10.123Z,18.92
2019-05-30T20:49:41.230Z,18.77
2019-05-30T20:52:14.487Z,18.63
2019-05-30T20:54:45.571Z,18.52
2019-05-30T20:57:17.136Z,18.44
2019-05-30T20:59:47.970Z,18.32
2019-05-30T21:02:18.934Z,18.19
2019-05-30T21:04:51.901Z,18.07
2019-05-30T21:07:24.182Z,18.01
2019-05-30T21:09:56.037Z,17.92
2019-05-30T21:12:36.829Z,17.81
2019-05-30T21:15:03.141Z,17.75
2019-05-30T21:17:35.705Z,17.70
2019-05-30T21:20:10.953Z,17.63
2019-05-30T21:22:40.220Z,17.62
2019-05-30T21:25:11.364Z,17.58
2019-05-30T21:27:42.990Z,17.52
2019-05-30T21:30:14.123Z,17.44
2019-05-30T21:32:46.422Z,17.34
2019-05-30T21:35:17.626Z,17.28
2019-05-30T21:37:48.447Z,17.24
2019-05-30T21:40:19.305Z,17.21
2019-05-30T21:43:04.766Z,17.20
2019-05-30T21:45:24.760Z,17.20
2019-05-30T21:47:55.608Z,17.20
2019-05-30T21:50:30.424Z,17.18
2019-05-30T21:53:02.793Z,17.18
2019-05-30T21:55:34.611Z,17.21
2019-05-30T21:58:05.288Z,17.23
2019-05-30T22:01:16.708Z,17.26
2019-05-30T22:03:48.731Z,17.29
2019-05-30T22:06:19.491Z,17.26
2019-05-30T22:08:51.556Z,17.25
2019-05-30T22:11:22.644Z,17.24
2019-05-30T22:13:53.253Z,17.27
2019-05-30T22:16:24.027Z,17.26
2019-05-30T22:18:54.516Z,17.23
2019-05-30T22:21:25.158Z,17.14
2019-05-30T22:23:55.691Z,17.05
2019-05-30T22:26:26.432Z,16.96
2019-05-30T22:28:56.990Z,16.87
2019-05-30T22:31:27.578Z,16.77
2019-05-30T22:33:58.103Z,16.67
2019-05-30T22:36:28.579Z,16.60
2019-05-30T22:38:59.018Z,16.53
2019-05-30T22:41:29.580Z,16.48
2019-05-30T22:44:00.118Z,16.41
2019-05-30T22:46:30.627Z,16.34
2019-05-30T22:49:01.201Z,16.26
2019-05-30T22:51:31.736Z,16.15
2019-05-30T22:54:02.183Z,16.06
2019-05-30T22:56:32.830Z,15.98
2019-05-30T22:59:03.248Z,15.89
2019-05-30T23:01:33.727Z,15.80
2019-05-30T23:04:04.654Z,15.70
2019-05-30T23:06:35.159Z,15.62
2019-05-30T23:09:07.556Z,15.55
2019-05-30T23:11:38.150Z,15.49
2019-05-30T23:14:10.026Z,15.41
2019-05-30T23:16:40.569Z,15.37
2019-05-30T23:19:11.093Z,15.29
2019-05-30T23:21:41.659Z,15.20
2019-05-30T23:24:12.338Z,15.13
2019-05-30T23:26:45.177Z,15.06
2019-05-30T23:29:15.964Z,14.99
2019-05-30T23:31:47.919Z,14.91
2019-05-30T23:34:18.469Z,14.82
2019-05-30T23:36:50.425Z,14.75
2019-05-30T23:39:21.384Z,14.67
2019-05-30T23:41:52.955Z,14.59
2019-05-30T23:44:23.562Z,14.48
2019-05-30T23:46:55.454Z,14.42
2019-05-30T23:49:28.641Z,14.34
2019-05-30T23:52:00.372Z,14.30
2019-05-30T23:54:32.051Z,14.29
2019-05-30T23:57:02.614Z,14.26
2019-05-30T23:59:33.235Z,14.20
